sensor_id;sensor_type;location;lat;lon;timestamp;temperature;humidity
74513;DHT22;62992;52.052;8.550;2022-12-18T00:01:05;-7.10;99.90
74513;DHT22;62992;52.052;8.550;2022-12-18T00:03:57;-7.10;99.90
74513;DHT22;62992;52.052;8.550;2022-12-18T00:06:41;-7.10;99.90
74513;DHT22;62992;52.052;8.550;2022-12-18T00:09:25;-7.10;99.90
74513;DHT22;62992;52.052;8.550;2022-12-18T00:12:09;-7.10;99.90
74513;DHT22;62992;52.052;8.550;2022-12-18T00:14:53;-7.20;99.90
74513;DHT22;62992;52.052;8.550;2022-12-18T00:17:38;-7.20;99.90
74513;DHT22;62992;52.052;8.550;2022-12-18T00:20:22;-7.20;99.90
74513;DHT22;62992;52.052;8.550;2022-12-18T00:23:09;-7.30;99.90
74513;DHT22;62992;52.052;8.550;2022-12-18T00:25:53;-7.30;99.90
74513;DHT22;62992;52.052;8.550;2022-12-18T00:28:37;-7.30;99.90
74513;DHT22;62992;52.052;8.550;2022-12-18T00:31:23;-7.30;99.90
74513;DHT22;62992;52.052;8.550;2022-12-18T00:34:12;-7.30;99.90
74513;DHT22;62992;52.052;8.550;2022-12-18T00:36:56;-7.40;99.90
74513;DHT22;62992;52.052;8.550;2022-12-18T00:39:41;-7.40;99.90
74513;DHT22;62992;52.052;8.550;2022-12-18T00:42:25;-7.40;99.90
74513;DHT22;62992;52.052;8.550;2022-12-18T00:45:30;-7.40;99.90
74513;DHT22;62992;52.052;8.550;2022-12-18T00:48:14;-7.40;99.90
74513;DHT22;62992;52.052;8.550;2022-12-18T00:50:58;-7.30;99.90
74513;DHT22;62992;52.052;8.550;2022-12-18T00:53:42;-7.30;99.90
74513;DHT22;62992;52.052;8.550;2022-12-18T00:56:26;-7.40;99.90
74513;DHT22;62992;52.052;8.550;2022-12-18T00:59:10;-7.40;99.90
74513;DHT22;62992;52.052;8.550;2022-12-18T01:01:54;-7.50;99.90
74513;DHT22;62992;52.052;8.550;2022-12-18T01:04:38;-7.40;99.90
74513;DHT22;62992;52.052;8.550;2022-12-18T01:07:22;-7.30;99.90
74513;DHT22;62992;52.052;8.550;2022-12-18T01:10:08;-7.30;99.90
74513;DHT22;62992;52.052;8.550;2022-12-18T01:12:53;-7.50;99.90
74513;DHT22;62992;52.052;8.550;2022-12-18T01:15:37;-7.50;99.90
74513;DHT22;62992;52.052;8.550;2022-12-18T01:18:21;-7.50;99.90
74513;DHT22;62992;52.052;8.550;2022-12-18T01:21:10;-7.60;99.90
74513;DHT22;62992;52.052;8.550;2022-12-18T01:23:56;-7.60;99.90
74513;DHT22;62992;52.052;8.550;2022-12-18T01:26:40;-7.60;99.90
74513;DHT22;62992;52.052;8.550;2022-12-18T01:29:24;-7.60;99.90
74513;DHT22;62992;52.052;8.550;2022-12-18T01:32:09;-7.70;99.90
74513;DHT22;62992;52.052;8.550;2022-12-18T01:34:53;-7.70;99.90
74513;DHT22;62992;52.052;8.550;2022-12-18T01:37:37;-7.60;99.90
74513;DHT22;62992;52.052;8.550;2022-12-18T01:40:21;-7.50;99.90
74513;DHT22;62992;52.052;8.550;2022-12-18T01:43:08;-7.50;99.90
74513;DHT22;62992;52.052;8.550;2022-12-18T01:45:52;-7.70;99.90
74513;DHT22;62992;52.052;8.550;2022-12-18T01:48:37;-7.70;99.90
74513;DHT22;62992;52.052;8.550;2022-12-18T01:51:23;-7.90;99.90
74513;DHT22;62992;52.052;8.550;2022-12-18T01:54:07;-7.70;99.90
74513;DHT22;62992;52.052;8.550;2022-12-18T01:56:51;-7.80;99.90
74513;DHT22;62992;52.052;8.550;2022-12-18T01:59:35;-7.80;99.90
74513;DHT22;62992;52.052;8.550;2022-12-18T02:02:21;-7.90;99.90
74513;DHT22;62992;52.052;8.550;2022-12-18T02:05:05;-7.90;99.90
74513;DHT22;62992;52.052;8.550;2022-12-18T02:20:43;-8.10;99.90
74513;DHT22;62992;52.052;8.550;2022-12-18T02:26:37;-8.30;99.90
74513;DHT22;62992;52.052;8.550;2022-12-18T02:29:29;-8.30;99.90
74513;DHT22;62992;52.052;8.550;2022-12-18T02:32:18;-8.20;99.90
74513;DHT22;62992;52.052;8.550;2022-12-18T02:35:05;-8.20;99.90
74513;DHT22;62992;52.052;8.550;2022-12-18T02:37:51;-8.30;99.90
74513;DHT22;62992;52.052;8.550;2022-12-18T02:40:39;-8.20;99.90
74513;DHT22;62992;52.052;8.550;2022-12-18T02:43:24;-8.20;99.90
74513;DHT22;62992;52.052;8.550;2022-12-18T02:46:46;-8.10;99.90
74513;DHT22;62992;52.052;8.550;2022-12-18T02:52:42;-8.10;99.90
74513;DHT22;62992;52.052;8.550;2022-12-18T03:01:46;-8.20;99.90
74513;DHT22;62992;52.052;8.550;2022-12-18T03:04:43;-8.30;99.90
74513;DHT22;62992;52.052;8.550;2022-12-18T03:07:39;-8.30;99.90
74513;DHT22;62992;52.052;8.550;2022-12-18T03:10:30;-8.30;99.90
74513;DHT22;62992;52.052;8.550;2022-12-18T03:13:22;-8.40;99.90
74513;DHT22;62992;52.052;8.550;2022-12-18T03:16:12;-8.50;99.90
74513;DHT22;62992;52.052;8.550;2022-12-18T03:19:07;-8.40;99.90
74513;DHT22;62992;52.052;8.550;2022-12-18T03:21:54;-8.30;99.90
74513;DHT22;62992;52.052;8.550;2022-12-18T03:24:40;-8.30;99.90
74513;DHT22;62992;52.052;8.550;2022-12-18T03:27:25;-8.40;99.90
74513;DHT22;62992;52.052;8.550;2022-12-18T03:30:12;-8.30;99.90
74513;DHT22;62992;52.052;8.550;2022-12-18T03:33:10;-8.40;99.90
74513;DHT22;62992;52.052;8.550;2022-12-18T03:35:56;-8.40;99.90
74513;DHT22;62992;52.052;8.550;2022-12-18T03:38:40;-8.60;99.90
74513;DHT22;62992;52.052;8.550;2022-12-18T03:47:43;-8.50;99.90
74513;DHT22;62992;52.052;8.550;2022-12-18T03:54:06;-8.60;99.90
74513;DHT22;62992;52.052;8.550;2022-12-18T03:56:59;-8.50;99.90
74513;DHT22;62992;52.052;8.550;2022-12-18T03:59:45;-8.50;99.90
74513;DHT22;62992;52.052;8.550;2022-12-18T04:02:31;-8.50;99.90
74513;DHT22;62992;52.052;8.550;2022-12-18T04:05:16;-8.60;99.90
74513;DHT22;62992;52.052;8.550;2022-12-18T04:08:01;-8.50;99.90
74513;DHT22;62992;52.052;8.550;2022-12-18T04:10:45;-8.50;99.90
74513;DHT22;62992;52.052;8.550;2022-12-18T04:13:36;-8.50;99.90
74513;DHT22;62992;52.052;8.550;2022-12-18T04:16:21;-8.50;99.90
74513;DHT22;62992;52.052;8.550;2022-12-18T04:19:05;-8.50;99.90
74513;DHT22;62992;52.052;8.550;2022-12-18T04:21:50;-8.60;99.90
74513;DHT22;62992;52.052;8.550;2022-12-18T04:24:34;-8.50;99.90
74513;DHT22;62992;52.052;8.550;2022-12-18T04:27:18;-8.50;99.90
74513;DHT22;62992;52.052;8.550;2022-12-18T04:30:02;-8.30;99.90
74513;DHT22;62992;52.052;8.550;2022-12-18T04:32:47;-8.40;99.90
74513;DHT22;62992;52.052;8.550;2022-12-18T04:35:31;-8.40;99.90
74513;DHT22;62992;52.052;8.550;2022-12-18T04:38:15;-8.40;99.90
74513;DHT22;62992;52.052;8.550;2022-12-18T04:40:59;-8.40;99.90
74513;DHT22;62992;52.052;8.550;2022-12-18T04:43:43;-8.10;99.90
74513;DHT22;62992;52.052;8.550;2022-12-18T04:46:28;-7.90;99.90
74513;DHT22;62992;52.052;8.550;2022-12-18T04:49:12;-7.80;99.90
74513;DHT22;62992;52.052;8.550;2022-12-18T04:51:56;-7.80;99.90
74513;DHT22;62992;52.052;8.550;2022-12-18T04:54:40;-7.80;99.90
74513;DHT22;62992;52.052;8.550;2022-12-18T04:57:24;-7.70;99.90
74513;DHT22;62992;52.052;8.550;2022-12-18T05:00:09;-7.70;99.90
74513;DHT22;62992;52.052;8.550;2022-12-18T05:02:53;-7.80;99.90
74513;DHT22;62992;52.052;8.550;2022-12-18T05:05:37;-7.90;99.90
74513;DHT22;62992;52.052;8.550;2022-12-18T05:08:21;-7.90;99.90
74513;DHT22;62992;52.052;8.550;2022-12-18T05:11:12;-7.90;99.90
74513;DHT22;62992;52.052;8.550;2022-12-18T05:13:59;-7.90;99.90
74513;DHT22;62992;52.052;8.550;2022-12-18T05:16:43;-8.00;99.90
74513;DHT22;62992;52.052;8.550;2022-12-18T05:19:27;-8.10;99.90
74513;DHT22;62992;52.052;8.550;2022-12-18T05:22:11;-8.10;99.90
74513;DHT22;62992;52.052;8.550;2022-12-18T05:24:55;-8.20;99.90
74513;DHT22;62992;52.052;8.550;2022-12-18T05:27:39;-8.30;99.90
74513;DHT22;62992;52.052;8.550;2022-12-18T05:30:23;-8.40;99.90
74513;DHT22;62992;52.052;8.550;2022-12-18T05:33:07;-8.40;99.90
74513;DHT22;62992;52.052;8.550;2022-12-18T05:35:57;-8.40;99.90
74513;DHT22;62992;52.052;8.550;2022-12-18T05:38:41;-8.40;99.90
74513;DHT22;62992;52.052;8.550;2022-12-18T05:41:26;-8.50;99.90
74513;DHT22;62992;52.052;8.550;2022-12-18T05:44:10;-8.50;99.90
74513;DHT22;62992;52.052;8.550;2022-12-18T05:46:54;-8.50;99.90
74513;DHT22;62992;52.052;8.550;2022-12-18T05:49:38;-8.50;99.90
74513;DHT22;62992;52.052;8.550;2022-12-18T05:52:23;-8.50;99.90
74513;DHT22;62992;52.052;8.550;2022-12-18T05:55:07;-8.60;99.90
74513;DHT22;62992;52.052;8.550;2022-12-18T05:57:51;-8.60;99.90
74513;DHT22;62992;52.052;8.550;2022-12-18T06:00:37;-8.30;99.90
74513;DHT22;62992;52.052;8.550;2022-12-18T06:03:24;-8.20;99.90
74513;DHT22;62992;52.052;8.550;2022-12-18T06:06:35;-8.00;99.90
74513;DHT22;62992;52.052;8.550;2022-12-18T06:09:19;-8.00;99.90
74513;DHT22;62992;52.052;8.550;2022-12-18T06:12:03;-8.00;99.90
74513;DHT22;62992;52.052;8.550;2022-12-18T06:14:48;-8.10;99.90
74513;DHT22;62992;52.052;8.550;2022-12-18T06:17:33;-8.10;99.90
74513;DHT22;62992;52.052;8.550;2022-12-18T06:20:17;-8.10;99.90
74513;DHT22;62992;52.052;8.550;2022-12-18T06:23:02;-8.20;99.90
74513;DHT22;62992;52.052;8.550;2022-12-18T06:25:46;-8.30;99.90
74513;DHT22;62992;52.052;8.550;2022-12-18T06:28:30;-8.40;99.90
74513;DHT22;62992;52.052;8.550;2022-12-18T06:31:14;-8.40;99.90
74513;DHT22;62992;52.052;8.550;2022-12-18T06:33:58;-8.50;99.90
74513;DHT22;62992;52.052;8.550;2022-12-18T06:36:42;-8.50;99.90
74513;DHT22;62992;52.052;8.550;2022-12-18T06:39:29;-8.50;99.90
74513;DHT22;62992;52.052;8.550;2022-12-18T06:42:14;-8.50;99.90
74513;DHT22;62992;52.052;8.550;2022-12-18T06:44:57;-8.50;99.90
74513;DHT22;62992;52.052;8.550;2022-12-18T06:47:42;-8.50;99.90
74513;DHT22;62992;52.052;8.550;2022-12-18T06:50:26;-8.50;99.90
74513;DHT22;62992;52.052;8.550;2022-12-18T06:53:10;-8.30;99.90
74513;DHT22;62992;52.052;8.550;2022-12-18T06:56:06;-8.10;99.90
74513;DHT22;62992;52.052;8.550;2022-12-18T06:58:51;-8.10;99.90
74513;DHT22;62992;52.052;8.550;2022-12-18T07:01:34;-8.10;99.90
74513;DHT22;62992;52.052;8.550;2022-12-18T07:04:19;-8.20;99.90
74513;DHT22;62992;52.052;8.550;2022-12-18T07:07:03;-8.30;99.90
74513;DHT22;62992;52.052;8.550;2022-12-18T07:09:48;-8.30;99.90
74513;DHT22;62992;52.052;8.550;2022-12-18T07:12:33;-8.30;99.90
74513;DHT22;62992;52.052;8.550;2022-12-18T07:15:17;-8.50;99.90
74513;DHT22;62992;52.052;8.550;2022-12-18T07:18:01;-8.50;99.90
74513;DHT22;62992;52.052;8.550;2022-12-18T07:20:45;-8.50;99.90
74513;DHT22;62992;52.052;8.550;2022-12-18T07:23:29;-8.50;99.90
74513;DHT22;62992;52.052;8.550;2022-12-18T07:26:14;-8.50;99.90
74513;DHT22;62992;52.052;8.550;2022-12-18T07:28:59;-8.50;99.90
74513;DHT22;62992;52.052;8.550;2022-12-18T07:31:43;-8.40;99.90
74513;DHT22;62992;52.052;8.550;2022-12-18T07:34:28;-8.40;99.90
74513;DHT22;62992;52.052;8.550;2022-12-18T07:37:12;-8.30;99.90
74513;DHT22;62992;52.052;8.550;2022-12-18T07:39:55;-8.30;99.90
74513;DHT22;62992;52.052;8.550;2022-12-18T07:42:40;-8.20;99.90
74513;DHT22;62992;52.052;8.550;2022-12-18T07:45:24;-8.20;99.90
74513;DHT22;62992;52.052;8.550;2022-12-18T07:48:08;-8.10;99.90
74513;DHT22;62992;52.052;8.550;2022-12-18T07:50:52;-8.10;99.90
74513;DHT22;62992;52.052;8.550;2022-12-18T07:53:36;-8.10;99.90
74513;DHT22;62992;52.052;8.550;2022-12-18T07:56:20;-8.00;99.90
74513;DHT22;62992;52.052;8.550;2022-12-18T07:59:05;-7.80;99.90
74513;DHT22;62992;52.052;8.550;2022-12-18T08:01:49;-7.70;99.90
74513;DHT22;62992;52.052;8.550;2022-12-18T08:04:33;-7.60;99.90
74513;DHT22;62992;52.052;8.550;2022-12-18T08:07:17;-7.60;99.90
74513;DHT22;62992;52.052;8.550;2022-12-18T08:10:01;-7.70;99.90
74513;DHT22;62992;52.052;8.550;2022-12-18T08:12:45;-7.70;99.90
74513;DHT22;62992;52.052;8.550;2022-12-18T08:15:32;-7.80;99.90
74513;DHT22;62992;52.052;8.550;2022-12-18T08:18:16;-7.80;99.90
74513;DHT22;62992;52.052;8.550;2022-12-18T08:21:11;-7.80;99.90
74513;DHT22;62992;52.052;8.550;2022-12-18T08:24:00;-7.60;99.90
74513;DHT22;62992;52.052;8.550;2022-12-18T08:26:44;-7.40;99.90
74513;DHT22;62992;52.052;8.550;2022-12-18T08:29:29;-7.60;99.90
74513;DHT22;62992;52.052;8.550;2022-12-18T08:32:14;-7.30;99.90
74513;DHT22;62992;52.052;8.550;2022-12-18T08:34:59;-7.20;99.90
74513;DHT22;62992;52.052;8.550;2022-12-18T08:37:43;-7.10;99.90
74513;DHT22;62992;52.052;8.550;2022-12-18T08:40:27;-7.00;99.90
74513;DHT22;62992;52.052;8.550;2022-12-18T08:43:11;-6.90;99.90
74513;DHT22;62992;52.052;8.550;2022-12-18T08:46:16;-6.70;99.90
74513;DHT22;62992;52.052;8.550;2022-12-18T08:49:00;-6.40;99.90
74513;DHT22;62992;52.052;8.550;2022-12-18T08:51:44;-6.20;99.90
74513;DHT22;62992;52.052;8.550;2022-12-18T08:54:28;-6.10;99.90
74513;DHT22;62992;52.052;8.550;2022-12-18T08:57:12;-6.00;99.90
74513;DHT22;62992;52.052;8.550;2022-12-18T08:59:56;-5.90;99.90
74513;DHT22;62992;52.052;8.550;2022-12-18T09:02:40;-5.90;99.90
74513;DHT22;62992;52.052;8.550;2022-12-18T09:05:24;-5.80;99.90
74513;DHT22;62992;52.052;8.550;2022-12-18T09:08:08;-5.80;99.90
74513;DHT22;62992;52.052;8.550;2022-12-18T09:10:53;-5.70;99.90
74513;DHT22;62992;52.052;8.550;2022-12-18T09:13:37;-5.60;99.90
74513;DHT22;62992;52.052;8.550;2022-12-18T09:16:22;-5.60;99.90
74513;DHT22;62992;52.052;8.550;2022-12-18T09:19:08;-5.50;99.90
74513;DHT22;62992;52.052;8.550;2022-12-18T09:21:53;-5.40;99.90
74513;DHT22;62992;52.052;8.550;2022-12-18T09:24:37;-5.30;99.90
74513;DHT22;62992;52.052;8.550;2022-12-18T09:27:21;-5.20;99.90
74513;DHT22;62992;52.052;8.550;2022-12-18T09:30:06;-5.00;99.90
74513;DHT22;62992;52.052;8.550;2022-12-18T09:32:50;-5.00;99.90
74513;DHT22;62992;52.052;8.550;2022-12-18T09:35:41;-5.00;99.90
74513;DHT22;62992;52.052;8.550;2022-12-18T09:38:25;-5.00;99.90
74513;DHT22;62992;52.052;8.550;2022-12-18T09:41:36;-4.90;99.90
74513;DHT22;62992;52.052;8.550;2022-12-18T09:44:39;-4.90;99.90
74513;DHT22;62992;52.052;8.550;2022-12-18T09:47:30;-4.70;99.90
74513;DHT22;62992;52.052;8.550;2022-12-18T09:50:35;-4.70;99.90
74513;DHT22;62992;52.052;8.550;2022-12-18T09:53:24;-4.70;99.90
74513;DHT22;62992;52.052;8.550;2022-12-18T09:56:16;-4.60;99.90
74513;DHT22;62992;52.052;8.550;2022-12-18T09:59:02;-4.60;99.90
74513;DHT22;62992;52.052;8.550;2022-12-18T10:01:47;-4.50;99.90
74513;DHT22;62992;52.052;8.550;2022-12-18T10:04:31;-4.30;99.90
74513;DHT22;62992;52.052;8.550;2022-12-18T10:07:29;-4.30;99.90
74513;DHT22;62992;52.052;8.550;2022-12-18T10:10:35;-4.20;99.90
74513;DHT22;62992;52.052;8.550;2022-12-18T10:16:19;-3.90;99.90
74513;DHT22;62992;52.052;8.550;2022-12-18T10:28:13;-2.10;99.90
74513;DHT22;62992;52.052;8.550;2022-12-18T10:30:58;-1.80;99.90
74513;DHT22;62992;52.052;8.550;2022-12-18T10:33:43;-1.90;99.90
74513;DHT22;62992;52.052;8.550;2022-12-18T10:36:27;-1.90;99.90
74513;DHT22;62992;52.052;8.550;2022-12-18T10:42:29;-2.00;99.90
74513;DHT22;62992;52.052;8.550;2022-12-18T10:45:15;-1.80;99.90
74513;DHT22;62992;52.052;8.550;2022-12-18T10:48:00;-1.70;99.90
74513;DHT22;62992;52.052;8.550;2022-12-18T10:50:48;-1.80;99.90
74513;DHT22;62992;52.052;8.550;2022-12-18T10:53:35;-1.90;99.90
74513;DHT22;62992;52.052;8.550;2022-12-18T10:56:20;-1.90;99.90
74513;DHT22;62992;52.052;8.550;2022-12-18T10:59:10;-2.10;99.90
74513;DHT22;62992;52.052;8.550;2022-12-18T11:01:57;-2.10;99.90
74513;DHT22;62992;52.052;8.550;2022-12-18T11:04:51;-2.20;99.90
74513;DHT22;62992;52.052;8.550;2022-12-18T11:07:49;-2.10;99.90
74513;DHT22;62992;52.052;8.550;2022-12-18T11:10:37;-2.00;99.90
74513;DHT22;62992;52.052;8.550;2022-12-18T11:13:24;-2.00;99.90
74513;DHT22;62992;52.052;8.550;2022-12-18T11:16:18;-1.90;99.90
74513;DHT22;62992;52.052;8.550;2022-12-18T11:21:57;-1.80;99.90
74513;DHT22;62992;52.052;8.550;2022-12-18T11:24:42;-1.90;99.90
74513;DHT22;62992;52.052;8.550;2022-12-18T11:27:28;-1.80;99.90
74513;DHT22;62992;52.052;8.550;2022-12-18T11:30:23;-1.80;99.90
74513;DHT22;62992;52.052;8.550;2022-12-18T11:33:15;-1.80;99.90
74513;DHT22;62992;52.052;8.550;2022-12-18T11:36:02;-1.80;99.90
74513;DHT22;62992;52.052;8.550;2022-12-18T11:38:49;-1.80;99.90
74513;DHT22;62992;52.052;8.550;2022-12-18T11:41:40;-1.80;99.90
74513;DHT22;62992;52.052;8.550;2022-12-18T11:44:55;-1.80;99.90
74513;DHT22;62992;52.052;8.550;2022-12-18T11:53:20;-1.80;99.90
74513;DHT22;62992;52.052;8.550;2022-12-18T11:59:43;-1.80;99.90
74513;DHT22;62992;52.052;8.550;2022-12-18T12:08:59;-1.80;99.90
74513;DHT22;62992;52.052;8.550;2022-12-18T12:12:27;-1.80;99.90
74513;DHT22;62992;52.052;8.550;2022-12-18T12:18:43;-1.80;99.90
74513;DHT22;62992;52.052;8.550;2022-12-18T12:21:35;-1.80;99.90
74513;DHT22;62992;52.052;8.550;2022-12-18T12:24:26;-1.70;99.90
74513;DHT22;62992;52.052;8.550;2022-12-18T12:33:31;-1.70;99.90
74513;DHT22;62992;52.052;8.550;2022-12-18T12:36:28;-1.70;99.90
74513;DHT22;62992;52.052;8.550;2022-12-18T12:39:20;-1.70;99.90
74513;DHT22;62992;52.052;8.550;2022-12-18T12:42:13;-1.70;99.90
74513;DHT22;62992;52.052;8.550;2022-12-18T12:48:49;-1.70;99.90
74513;DHT22;62992;52.052;8.550;2022-12-18T12:51:35;-1.70;99.90
74513;DHT22;62992;52.052;8.550;2022-12-18T12:54:23;-1.70;99.90
74513;DHT22;62992;52.052;8.550;2022-12-18T12:57:13;-1.70;99.90
74513;DHT22;62992;52.052;8.550;2022-12-18T13:00:10;-1.70;99.90
74513;DHT22;62992;52.052;8.550;2022-12-18T13:03:03;-1.70;99.90
74513;DHT22;62992;52.052;8.550;2022-12-18T13:05:55;-1.70;99.90
74513;DHT22;62992;52.052;8.550;2022-12-18T13:08:58;-1.70;99.90
74513;DHT22;62992;52.052;8.550;2022-12-18T13:11:45;-1.70;99.90
74513;DHT22;62992;52.052;8.550;2022-12-18T13:14:48;-1.70;99.90
74513;DHT22;62992;52.052;8.550;2022-12-18T13:17:32;-1.70;99.90
74513;DHT22;62992;52.052;8.550;2022-12-18T13:20:16;-1.70;99.90
74513;DHT22;62992;52.052;8.550;2022-12-18T13:23:01;-1.70;99.90
74513;DHT22;62992;52.052;8.550;2022-12-18T13:28:54;-1.70;99.90
74513;DHT22;62992;52.052;8.550;2022-12-18T13:34:25;-1.60;99.90
74513;DHT22;62992;52.052;8.550;2022-12-18T13:46:26;-1.60;99.90
74513;DHT22;62992;52.052;8.550;2022-12-18T13:51:58;-1.60;99.90
74513;DHT22;62992;52.052;8.550;2022-12-18T13:54:49;-1.50;99.90
74513;DHT22;62992;52.052;8.550;2022-12-18T13:57:36;-1.60;99.90
74513;DHT22;62992;52.052;8.550;2022-12-18T14:00:31;-1.60;99.90
74513;DHT22;62992;52.052;8.550;2022-12-18T14:03:22;-1.60;99.90
74513;DHT22;62992;52.052;8.550;2022-12-18T14:06:07;-1.60;99.90
74513;DHT22;62992;52.052;8.550;2022-12-18T14:08:53;-1.70;99.90
74513;DHT22;62992;52.052;8.550;2022-12-18T14:11:37;-1.70;99.90
74513;DHT22;62992;52.052;8.550;2022-12-18T14:14:21;-1.70;99.90
74513;DHT22;62992;52.052;8.550;2022-12-18T14:17:09;-1.60;99.90
74513;DHT22;62992;52.052;8.550;2022-12-18T14:19:54;-1.60;99.90
74513;DHT22;62992;52.052;8.550;2022-12-18T14:22:43;-1.60;99.90
74513;DHT22;62992;52.052;8.550;2022-12-18T14:25:30;-1.60;99.90
74513;DHT22;62992;52.052;8.550;2022-12-18T14:28:14;-1.60;99.90
74513;DHT22;62992;52.052;8.550;2022-12-18T14:30:59;-1.50;99.90
74513;DHT22;62992;52.052;8.550;2022-12-18T14:33:43;-1.60;99.90
74513;DHT22;62992;52.052;8.550;2022-12-18T14:36:28;-1.60;99.90
74513;DHT22;62992;52.052;8.550;2022-12-18T14:39:17;-1.60;99.90
74513;DHT22;62992;52.052;8.550;2022-12-18T14:42:01;-1.60;99.90
74513;DHT22;62992;52.052;8.550;2022-12-18T14:44:45;-1.60;99.90
74513;DHT22;62992;52.052;8.550;2022-12-18T14:47:29;-1.60;99.90
74513;DHT22;62992;52.052;8.550;2022-12-18T14:50:14;-1.60;99.90
74513;DHT22;62992;52.052;8.550;2022-12-18T14:52:58;-1.60;99.90
74513;DHT22;62992;52.052;8.550;2022-12-18T14:55:46;-1.60;99.90
74513;DHT22;62992;52.052;8.550;2022-12-18T14:58:31;-1.60;99.90
74513;DHT22;62992;52.052;8.550;2022-12-18T15:01:51;-1.60;99.90
74513;DHT22;62992;52.052;8.550;2022-12-18T15:04:40;-1.70;99.90
74513;DHT22;62992;52.052;8.550;2022-12-18T15:07:26;-1.60;99.90
74513;DHT22;62992;52.052;8.550;2022-12-18T15:15:48;-1.70;99.90
74513;DHT22;62992;52.052;8.550;2022-12-18T15:18:34;-1.70;99.90
74513;DHT22;62992;52.052;8.550;2022-12-18T15:21:20;-1.70;99.90
74513;DHT22;62992;52.052;8.550;2022-12-18T15:24:17;-1.70;99.90
74513;DHT22;62992;52.052;8.550;2022-12-18T15:27:01;-1.50;99.90
74513;DHT22;62992;52.052;8.550;2022-12-18T15:33:16;-1.60;99.90
74513;DHT22;62992;52.052;8.550;2022-12-18T15:36:03;-1.60;99.90
74513;DHT22;62992;52.052;8.550;2022-12-18T15:38:51;-1.60;99.90
74513;DHT22;62992;52.052;8.550;2022-12-18T15:41:36;-1.50;99.90
74513;DHT22;62992;52.052;8.550;2022-12-18T15:44:24;-1.50;99.90
74513;DHT22;62992;52.052;8.550;2022-12-18T15:47:12;-1.50;99.90
74513;DHT22;62992;52.052;8.550;2022-12-18T15:49:56;-1.50;99.90
74513;DHT22;62992;52.052;8.550;2022-12-18T15:52:49;-1.50;99.90
74513;DHT22;62992;52.052;8.550;2022-12-18T15:55:35;-1.60;99.90
74513;DHT22;62992;52.052;8.550;2022-12-18T15:58:37;-1.50;99.90
74513;DHT22;62992;52.052;8.550;2022-12-18T16:01:23;-1.50;99.90
74513;DHT22;62992;52.052;8.550;2022-12-18T16:04:11;-1.50;99.90
74513;DHT22;62992;52.052;8.550;2022-12-18T16:06:56;-1.50;99.90
74513;DHT22;62992;52.052;8.550;2022-12-18T16:09:40;-1.40;99.90
74513;DHT22;62992;52.052;8.550;2022-12-18T16:12:24;-1.50;99.90
74513;DHT22;62992;52.052;8.550;2022-12-18T16:15:12;-1.50;99.90
74513;DHT22;62992;52.052;8.550;2022-12-18T16:17:57;-1.50;99.90
74513;DHT22;62992;52.052;8.550;2022-12-18T16:20:41;-1.50;99.90
74513;DHT22;62992;52.052;8.550;2022-12-18T16:23:26;-1.50;99.90
74513;DHT22;62992;52.052;8.550;2022-12-18T16:26:11;-1.50;99.90
74513;DHT22;62992;52.052;8.550;2022-12-18T16:28:55;-1.50;99.90
74513;DHT22;62992;52.052;8.550;2022-12-18T16:31:39;-1.50;99.90
74513;DHT22;62992;52.052;8.550;2022-12-18T16:34:29;-1.50;99.90
74513;DHT22;62992;52.052;8.550;2022-12-18T16:37:15;-1.50;99.90
74513;DHT22;62992;52.052;8.550;2022-12-18T16:39:59;-1.40;99.90
74513;DHT22;62992;52.052;8.550;2022-12-18T16:42:44;-1.40;99.90
74513;DHT22;62992;52.052;8.550;2022-12-18T16:45:29;-1.40;99.90
74513;DHT22;62992;52.052;8.550;2022-12-18T16:48:17;-1.40;99.90
74513;DHT22;62992;52.052;8.550;2022-12-18T16:51:03;-1.40;99.90
74513;DHT22;62992;52.052;8.550;2022-12-18T16:53:48;-1.40;99.90
74513;DHT22;62992;52.052;8.550;2022-12-18T16:56:32;-1.40;99.90
74513;DHT22;62992;52.052;8.550;2022-12-18T16:59:16;-1.40;99.90
74513;DHT22;62992;52.052;8.550;2022-12-18T17:02:00;-1.40;99.90
74513;DHT22;62992;52.052;8.550;2022-12-18T17:04:45;-1.30;99.90
74513;DHT22;62992;52.052;8.550;2022-12-18T17:07:29;-1.30;99.90
74513;DHT22;62992;52.052;8.550;2022-12-18T17:10:13;-1.30;99.90
74513;DHT22;62992;52.052;8.550;2022-12-18T17:12:57;-1.30;99.90
74513;DHT22;62992;52.052;8.550;2022-12-18T17:15:42;-1.20;99.90
74513;DHT22;62992;52.052;8.550;2022-12-18T17:18:26;-1.20;99.90
74513;DHT22;62992;52.052;8.550;2022-12-18T17:21:12;-1.20;99.90
74513;DHT22;62992;52.052;8.550;2022-12-18T17:24:01;-1.20;99.90
74513;DHT22;62992;52.052;8.550;2022-12-18T17:26:46;-1.10;99.90
74513;DHT22;62992;52.052;8.550;2022-12-18T17:29:31;-1.10;99.90
74513;DHT22;62992;52.052;8.550;2022-12-18T17:32:16;-1.10;99.90
74513;DHT22;62992;52.052;8.550;2022-12-18T17:35:01;-1.10;99.90
74513;DHT22;62992;52.052;8.550;2022-12-18T17:37:44;-1.10;99.90
74513;DHT22;62992;52.052;8.550;2022-12-18T17:40:28;-1.10;99.90
74513;DHT22;62992;52.052;8.550;2022-12-18T17:43:15;-1.10;99.90
74513;DHT22;62992;52.052;8.550;2022-12-18T17:46:03;-0.90;99.90
74513;DHT22;62992;52.052;8.550;2022-12-18T17:48:48;-0.90;99.90
74513;DHT22;62992;52.052;8.550;2022-12-18T17:51:32;-0.90;99.90
74513;DHT22;62992;52.052;8.550;2022-12-18T17:54:16;-0.80;99.90
74513;DHT22;62992;52.052;8.550;2022-12-18T17:57:00;-0.70;99.90
74513;DHT22;62992;52.052;8.550;2022-12-18T17:59:45;-0.60;99.90
74513;DHT22;62992;52.052;8.550;2022-12-18T18:02:29;-0.50;99.90
74513;DHT22;62992;52.052;8.550;2022-12-18T18:05:13;-0.40;99.90
74513;DHT22;62992;52.052;8.550;2022-12-18T18:07:57;-0.50;99.90
74513;DHT22;62992;52.052;8.550;2022-12-18T18:10:44;-0.40;99.90
74513;DHT22;62992;52.052;8.550;2022-12-18T18:13:31;-0.30;99.90
74513;DHT22;62992;52.052;8.550;2022-12-18T18:16:39;-0.20;99.90
74513;DHT22;62992;52.052;8.550;2022-12-18T18:19:23;-0.30;99.90
74513;DHT22;62992;52.052;8.550;2022-12-18T18:22:08;-0.10;99.90
74513;DHT22;62992;52.052;8.550;2022-12-18T18:24:53;-0.10;99.90
74513;DHT22;62992;52.052;8.550;2022-12-18T18:27:37;-0.10;99.90
74513;DHT22;62992;52.052;8.550;2022-12-18T18:30:22;-0.10;99.90
74513;DHT22;62992;52.052;8.550;2022-12-18T18:33:06;-0.20;99.90
74513;DHT22;62992;52.052;8.550;2022-12-18T18:35:50;-0.20;99.90
74513;DHT22;62992;52.052;8.550;2022-12-18T18:38:34;-0.30;99.90
74513;DHT22;62992;52.052;8.550;2022-12-18T18:41:18;-0.40;99.90
74513;DHT22;62992;52.052;8.550;2022-12-18T18:44:03;-0.30;99.90
74513;DHT22;62992;52.052;8.550;2022-12-18T18:46:47;-0.40;99.90
74513;DHT22;62992;52.052;8.550;2022-12-18T18:49:32;-0.30;99.90
74513;DHT22;62992;52.052;8.550;2022-12-18T18:52:17;-0.40;99.90
74513;DHT22;62992;52.052;8.550;2022-12-18T18:55:01;-0.30;99.90
74513;DHT22;62992;52.052;8.550;2022-12-18T18:57:44;-0.30;99.90
74513;DHT22;62992;52.052;8.550;2022-12-18T19:00:28;-0.20;99.90
74513;DHT22;62992;52.052;8.550;2022-12-18T19:03:12;-0.20;99.90
74513;DHT22;62992;52.052;8.550;2022-12-18T19:05:59;-0.20;99.90
74513;DHT22;62992;52.052;8.550;2022-12-18T19:08:44;-0.20;99.90
74513;DHT22;62992;52.052;8.550;2022-12-18T19:11:32;-0.10;99.90
74513;DHT22;62992;52.052;8.550;2022-12-18T19:14:35;-0.10;99.90
74513;DHT22;62992;52.052;8.550;2022-12-18T19:17:19;-0.10;99.90
74513;DHT22;62992;52.052;8.550;2022-12-18T19:20:04;-0.20;99.90
74513;DHT22;62992;52.052;8.550;2022-12-18T19:22:48;-0.20;99.90